createdAt,value
2022-09-23T00:00:03.883Z,7.40
2022-09-23T00:01:03.910Z,7.38
2022-09-23T00:02:03.896Z,7.40
2022-09-23T00:03:03.835Z,7.40
2022-09-23T00:04:03.839Z,7.38
2022-09-23T00:05:03.869Z,7.41
2022-09-23T00:06:03.824Z,7.41
2022-09-23T00:07:03.808Z,7.38
2022-09-23T00:08:03.803Z,7.40
2022-09-23T00:09:03.785Z,7.40
2022-09-23T00:10:03.765Z,7.41
2022-09-23T00:11:03.826Z,7.40
2022-09-23T00:12:08.712Z,7.44
2022-09-23T00:13:03.746Z,7.42
2022-09-23T00:14:03.733Z,7.41
2022-09-23T00:15:03.744Z,7.41
2022-09-23T00:16:03.698Z,7.41
2022-09-23T00:17:03.782Z,7.40
2022-09-23T00:18:03.677Z,7.38
2022-09-23T00:19:03.839Z,7.38
2022-09-23T00:20:03.671Z,7.37
2022-09-23T00:21:03.658Z,7.37
2022-09-23T00:22:03.638Z,7.41
2022-09-23T00:23:03.664Z,7.41
2022-09-23T00:24:03.602Z,7.42
2022-09-23T00:25:03.596Z,7.45
2022-09-23T00:26:03.613Z,7.49
2022-09-23T00:27:03.591Z,7.47
2022-09-23T00:28:03.611Z,7.50
2022-09-23T00:29:03.562Z,7.50
2022-09-23T00:30:03.546Z,7.50
2022-09-23T00:31:03.572Z,7.50
2022-09-23T00:32:03.520Z,7.50
2022-09-23T00:33:03.507Z,7.50
2022-09-23T00:34:03.518Z,7.49
2022-09-23T00:35:03.496Z,7.47
2022-09-23T00:36:03.472Z,7.45
2022-09-23T00:37:03.470Z,7.45
2022-09-23T00:38:03.447Z,7.45
2022-09-23T00:39:04.539Z,7.45
2022-09-23T00:40:03.522Z,7.47
2022-09-23T00:41:03.420Z,7.45
2022-09-23T00:42:03.460Z,7.45
2022-09-23T00:43:03.418Z,7.44
2022-09-23T00:44:03.383Z,7.42
2022-09-23T00:45:03.403Z,7.42
2022-09-23T00:46:03.402Z,7.41
2022-09-23T00:47:03.354Z,7.40
2022-09-23T00:48:03.354Z,7.38
2022-09-23T00:49:03.347Z,7.40
2022-09-23T00:50:03.335Z,7.37
2022-09-23T00:51:03.331Z,7.35
2022-09-23T00:52:03.326Z,7.35
2022-09-23T00:53:03.327Z,7.35
2022-09-23T00:54:03.270Z,7.37
2022-09-23T00:55:03.265Z,7.37
2022-09-23T00:56:03.247Z,7.35
2022-09-23T00:57:03.253Z,7.35
2022-09-23T00:58:03.235Z,7.37
2022-09-23T00:59:03.222Z,7.35
2022-09-23T01:00:03.255Z,7.35
2022-09-23T01:01:03.278Z,7.31
2022-09-23T01:02:03.266Z,7.29
2022-09-23T01:03:03.202Z,7.31
2022-09-23T01:04:03.167Z,7.35
2022-09-23T01:05:03.203Z,7.34
2022-09-23T01:06:03.187Z,7.35
2022-09-23T01:07:03.133Z,7.34
2022-09-23T01:08:03.131Z,7.34
2022-09-23T01:09:03.120Z,7.32
2022-09-23T01:10:03.115Z,7.31
2022-09-23T01:11:04.043Z,7.29
2022-09-23T01:12:03.081Z,7.29
2022-09-23T01:13:03.097Z,7.31
2022-09-23T01:14:03.078Z,7.31
2022-09-23T01:15:03.114Z,7.32
2022-09-23T01:16:03.026Z,7.31
2022-09-23T01:17:03.103Z,7.31
2022-09-23T01:18:03.024Z,7.34
2022-09-23T01:19:02.999Z,7.34
2022-09-23T01:20:02.995Z,7.34
2022-09-23T01:21:03.039Z,7.35
2022-09-23T01:22:02.969Z,7.34
2022-09-23T01:23:02.974Z,7.32
2022-09-23T01:24:03.006Z,7.31
2022-09-23T01:25:02.927Z,7.29
2022-09-23T01:26:02.959Z,7.27
2022-09-23T01:27:02.952Z,7.27
2022-09-23T01:28:02.990Z,7.27
2022-09-23T01:29:02.943Z,7.26
2022-09-23T01:30:02.912Z,7.24
2022-09-23T01:31:03.002Z,7.24
2022-09-23T01:32:02.863Z,7.23
2022-09-23T01:33:02.859Z,7.22
2022-09-23T01:34:02.843Z,7.20
2022-09-23T01:35:02.890Z,7.17
2022-09-23T01:36:02.818Z,7.17
2022-09-23T01:37:02.787Z,7.16
2022-09-23T01:38:02.797Z,7.15
2022-09-23T01:39:02.772Z,7.13
2022-09-23T01:40:02.940Z,7.16
2022-09-23T01:41:02.786Z,7.16
2022-09-23T01:42:02.758Z,7.20
2022-09-23T01:43:02.756Z,7.20
2022-09-23T01:44:02.779Z,7.22
2022-09-23T01:45:02.735Z,7.23
2022-09-23T01:46:02.699Z,7.23
2022-09-23T01:47:02.702Z,7.22
2022-09-23T01:48:02.783Z,7.20
2022-09-23T01:49:02.668Z,7.20
2022-09-23T01:50:02.733Z,7.20
2022-09-23T01:51:02.711Z,7.22
2022-09-23T01:52:02.642Z,7.20
2022-09-23T01:53:02.721Z,7.19
2022-09-23T01:54:02.619Z,7.20
2022-09-23T01:55:02.614Z,7.19
2022-09-23T01:56:02.617Z,7.20
2022-09-23T01:57:02.575Z,7.19
2022-09-23T01:58:02.575Z,7.20
2022-09-23T01:59:02.577Z,7.20
2022-09-23T02:00:02.541Z,7.20
2022-09-23T02:01:02.613Z,7.20
2022-09-23T02:02:02.609Z,7.20
2022-09-23T02:03:02.510Z,7.22
2022-09-23T02:04:02.585Z,7.23
2022-09-23T02:05:02.488Z,7.24
2022-09-23T02:06:02.476Z,7.24
2022-09-23T02:07:02.512Z,7.26
2022-09-23T02:08:02.488Z,7.27
2022-09-23T02:09:02.475Z,7.32
2022-09-23T02:10:02.433Z,7.32
2022-09-23T02:11:02.433Z,7.32
2022-09-23T02:12:02.411Z,7.37
2022-09-23T02:13:02.491Z,7.40
2022-09-23T02:14:03.242Z,7.44
2022-09-23T02:15:02.379Z,7.47
2022-09-23T02:16:02.392Z,7.47
2022-09-23T02:17:02.392Z,7.47
2022-09-23T02:18:02.355Z,7.47
2022-09-23T02:19:02.447Z,7.49
2022-09-23T02:20:02.342Z,7.50
2022-09-23T02:21:02.414Z,7.47
2022-09-23T02:22:02.301Z,7.45
2022-09-23T02:23:02.295Z,7.44
2022-09-23T02:24:02.295Z,7.47
2022-09-23T02:25:02.273Z,7.50
2022-09-23T02:26:02.269Z,7.50
2022-09-23T02:27:02.259Z,7.52
2022-09-23T02:28:02.245Z,7.50
2022-09-23T02:29:02.299Z,7.50
2022-09-23T02:30:02.213Z,7.49
2022-09-23T02:31:02.206Z,7.49
2022-09-23T02:32:02.356Z,7.50
2022-09-23T02:33:02.185Z,7.50
2022-09-23T02:34:02.163Z,7.49
2022-09-23T02:35:02.166Z,7.49
2022-09-23T02:36:02.169Z,7.47
2022-09-23T02:37:02.139Z,7.47
2022-09-23T02:38:02.130Z,7.52
2022-09-23T02:39:02.105Z,7.55
2022-09-23T02:40:02.120Z,7.56
2022-09-23T02:41:02.090Z,7.58
2022-09-23T02:42:02.082Z,7.59
2022-09-23T02:43:02.072Z,7.58
2022-09-23T02:44:02.139Z,7.59
2022-09-23T02:45:02.112Z,7.59
2022-09-23T02:46:02.064Z,7.56
2022-09-23T02:47:02.029Z,7.58
2022-09-23T02:48:02.017Z,7.58
2022-09-23T02:49:01.998Z,7.59
2022-09-23T02:50:02.014Z,7.59
2022-09-23T02:51:01.996Z,7.60
2022-09-23T02:52:01.966Z,7.58
2022-09-23T02:53:01.972Z,7.55
2022-09-23T02:54:01.977Z,7.52
2022-09-23T02:55:01.947Z,7.47
2022-09-23T02:56:01.977Z,7.44
2022-09-23T02:57:01.902Z,7.42
2022-09-23T02:58:01.913Z,7.42
2022-09-23T02:59:01.892Z,7.40
2022-09-23T03:00:01.875Z,7.40
2022-09-23T03:01:01.989Z,7.41
2022-09-23T03:02:01.956Z,7.44
2022-09-23T03:03:01.846Z,7.47
2022-09-23T03:04:01.830Z,7.45
2022-09-23T03:05:01.853Z,7.44
2022-09-23T03:06:01.808Z,7.45
2022-09-23T03:07:01.828Z,7.47
2022-09-23T03:08:01.790Z,7.49
2022-09-23T03:09:01.879Z,7.49
2022-09-23T03:10:01.764Z,7.47
2022-09-23T03:11:01.763Z,7.44
2022-09-23T03:12:01.762Z,7.41
2022-09-23T03:13:01.733Z,7.41
2022-09-23T03:14:01.719Z,7.41
2022-09-23T03:15:01.724Z,7.41
2022-09-23T03:16:01.753Z,7.42
2022-09-23T03:17:01.727Z,7.44
2022-09-23T03:18:01.666Z,7.45
2022-09-23T03:19:01.668Z,7.47
2022-09-23T03:20:01.647Z,7.49
2022-09-23T03:21:01.644Z,7.49
2022-09-23T03:22:01.632Z,7.50
2022-09-23T03:23:01.679Z,7.50
2022-09-23T03:24:01.680Z,7.50
2022-09-23T03:25:01.608Z,7.50
2022-09-23T03:26:01.592Z,7.50
2022-09-23T03:27:01.584Z,7.52
2022-09-23T03:28:01.582Z,7.53
2022-09-23T03:29:01.584Z,7.55
2022-09-23T03:30:01.535Z,7.56
2022-09-23T03:31:01.539Z,7.58
2022-09-23T03:32:01.585Z,7.56
2022-09-23T03:33:01.547Z,7.58
2022-09-23T03:34:01.499Z,7.59
2022-09-23T03:35:01.507Z,7.58
2022-09-23T03:36:01.494Z,7.58
2022-09-23T03:37:01.466Z,7.58
2022-09-23T03:38:01.477Z,7.58
2022-09-23T03:39:01.482Z,7.56
2022-09-23T03:40:01.454Z,7.56
2022-09-23T03:41:01.438Z,7.56
2022-09-23T03:42:01.405Z,7.55
2022-09-23T03:43:01.537Z,7.56
2022-09-23T03:44:01.399Z,7.56
2022-09-23T03:45:01.481Z,7.58
2022-09-23T03:46:01.491Z,7.59
2022-09-23T03:47:07.899Z,7.59
2022-09-23T03:48:01.338Z,7.62
2022-09-23T03:49:01.335Z,7.60
2022-09-23T03:50:01.321Z,7.62
2022-09-23T03:51:01.331Z,7.63
2022-09-23T03:52:01.314Z,7.66
2022-09-23T03:53:01.304Z,7.66
2022-09-23T03:54:01.273Z,7.66
2022-09-23T03:55:01.282Z,7.66
2022-09-23T03:56:01.266Z,7.66
2022-09-23T03:57:01.260Z,7.69
2022-09-23T03:58:01.296Z,7.69
2022-09-23T03:59:01.227Z,7.67
2022-09-23T04:00:01.198Z,7.69
2022-09-23T04:01:01.288Z,7.69
2022-09-23T04:02:01.228Z,7.71
2022-09-23T04:03:01.200Z,7.71
2022-09-23T04:04:01.373Z,7.72
2022-09-23T04:05:01.160Z,7.72
2022-09-23T04:06:01.157Z,7.72
2022-09-23T04:07:01.161Z,7.72
2022-09-23T04:08:01.150Z,7.71
2022-09-23T04:09:01.154Z,7.71
2022-09-23T04:10:01.093Z,7.71
2022-09-23T04:11:01.147Z,7.71
2022-09-23T04:12:01.084Z,7.69
2022-09-23T04:13:01.149Z,7.69
2022-09-23T04:14:01.048Z,7.67
2022-09-23T04:15:01.035Z,7.69
2022-09-23T04:16:01.093Z,7.71
2022-09-23T04:17:01.023Z,7.74
2022-09-23T04:18:01.032Z,7.74
2022-09-23T04:19:00.992Z,7.75
2022-09-23T04:20:00.998Z,7.77
2022-09-23T04:21:00.990Z,7.77
2022-09-23T04:22:00.988Z,7.78
2022-09-23T04:23:00.989Z,7.79
2022-09-23T04:24:00.931Z,7.78
2022-09-23T04:25:00.932Z,7.78
2022-09-23T04:26:00.936Z,7.79
2022-09-23T04:27:00.952Z,7.78
2022-09-23T04:28:00.907Z,7.78
2022-09-23T04:29:00.887Z,7.78
2022-09-23T04:30:00.882Z,7.78
2022-09-23T04:31:00.862Z,7.78
2022-09-23T04:32:00.949Z,7.78
2022-09-23T04:33:01.493Z,7.78
2022-09-23T04:34:00.838Z,7.77
2022-09-23T04:35:00.879Z,7.75
2022-09-23T04:36:00.805Z,7.75
2022-09-23T04:37:00.802Z,7.74
2022-09-23T04:38:00.810Z,7.77
2022-09-23T04:39:00.767Z,7.75
2022-09-23T04:40:00.755Z,7.78
2022-09-23T04:41:00.748Z,7.77
2022-09-23T04:42:00.750Z,7.79
2022-09-23T04:43:00.759Z,7.78
2022-09-23T04:44:00.740Z,7.79
2022-09-23T04:45:00.711Z,7.79
2022-09-23T04:46:00.716Z,7.79
2022-09-23T04:47:00.746Z,7.78
2022-09-23T04:48:00.670Z,7.81
2022-09-23T04:49:00.703Z,7.81
2022-09-23T04:50:00.656Z,7.82
2022-09-23T04:51:00.812Z,7.79
2022-09-23T04:52:00.656Z,7.82
2022-09-23T04:53:00.660Z,7.81
2022-09-23T04:54:00.613Z,7.82
2022-09-23T04:55:00.603Z,7.82
2022-09-23T04:56:00.587Z,7.84
2022-09-23T04:57:00.605Z,7.85
2022-09-23T04:58:00.636Z,7.85
2022-09-23T04:59:00.560Z,7.85
2022-09-23T05:00:00.551Z,7.84
2022-09-23T05:01:05.113Z,7.84
2022-09-23T05:02:00.600Z,7.84
2022-09-23T05:03:00.503Z,7.84
2022-09-23T05:04:00.521Z,7.84
2022-09-23T05:05:00.544Z,7.87
2022-09-23T05:06:00.532Z,7.85
2022-09-23T05:07:03.211Z,7.87
2022-09-23T05:08:00.461Z,7.87
2022-09-23T05:09:00.516Z,7.87
2022-09-23T05:10:00.453Z,7.87
2022-09-23T05:11:00.461Z,7.89
2022-09-23T05:12:00.401Z,7.89
2022-09-23T05:13:00.479Z,7.93
2022-09-23T05:14:00.395Z,7.92
2022-09-23T05:15:00.388Z,7.93
2022-09-23T05:16:00.439Z,7.99
2022-09-23T05:17:00.362Z,7.99
2022-09-23T05:18:00.349Z,8.00
2022-09-23T05:19:00.631Z,8.03
2022-09-23T05:20:00.317Z,8.07
2022-09-23T05:21:00.317Z,8.08
2022-09-23T05:22:00.339Z,8.08
2022-09-23T05:23:00.286Z,8.08
2022-09-23T05:24:00.293Z,8.08
2022-09-23T05:25:00.313Z,8.10
2022-09-23T05:26:00.253Z,8.10
2022-09-23T05:27:00.260Z,8.10
2022-09-23T05:28:00.246Z,8.11
2022-09-23T05:29:00.378Z,8.14
2022-09-23T05:30:00.217Z,8.14
2022-09-23T05:31:00.267Z,8.18
2022-09-23T05:32:00.321Z,8.20
2022-09-23T05:33:00.193Z,8.18
2022-09-23T05:34:00.156Z,8.21
2022-09-23T05:35:00.226Z,8.21
2022-09-23T05:36:00.142Z,8.18
2022-09-23T05:37:00.142Z,8.21
2022-09-23T05:38:00.143Z,8.20
2022-09-23T05:39:00.267Z,8.20
2022-09-23T05:40:00.112Z,8.20
2022-09-23T05:41:00.093Z,8.20
2022-09-23T05:42:00.089Z,8.21
2022-09-23T05:43:00.088Z,8.21
2022-09-23T05:44:00.091Z,8.21
2022-09-23T05:45:00.071Z,8.25
2022-09-23T05:46:00.037Z,8.25
2022-09-23T05:47:00.088Z,8.25
2022-09-23T05:48:01.049Z,8.26
2022-09-23T05:49:02.825Z,8.26
2022-09-23T05:50:00.782Z,8.28
2022-09-23T05:50:59.979Z,8.28
2022-09-23T05:51:59.985Z,8.26
2022-09-23T05:52:59.989Z,8.29
2022-09-23T05:53:59.953Z,8.29
2022-09-23T05:54:59.994Z,8.30
2022-09-23T05:55:59.957Z,8.30
2022-09-23T05:57:02.688Z,8.30
2022-09-23T05:57:59.931Z,8.33
2022-09-23T05:58:59.947Z,8.35
2022-09-23T05:59:59.889Z,8.35
2022-09-23T06:00:59.899Z,8.37
2022-09-23T06:01:59.886Z,8.36
2022-09-23T06:02:59.940Z,8.39
2022-09-23T06:03:59.922Z,8.40
2022-09-23T06:04:59.824Z,8.42
2022-09-23T06:05:59.819Z,8.44
2022-09-23T06:07:03.302Z,8.44
2022-09-23T06:07:59.782Z,8.45
2022-09-23T06:08:59.887Z,8.47
2022-09-23T06:09:59.823Z,8.45
2022-09-23T06:10:59.742Z,8.48
2022-09-23T06:11:59.774Z,8.50
2022-09-23T06:12:59.740Z,8.51
2022-09-23T06:13:59.817Z,8.51
2022-09-23T06:14:59.736Z,8.53
2022-09-23T06:15:59.805Z,8.53
2022-09-23T06:16:59.725Z,8.55
2022-09-23T06:17:59.678Z,8.55
2022-09-23T06:19:04.421Z,8.55
2022-09-23T06:19:59.717Z,8.57
2022-09-23T06:20:59.649Z,8.57
2022-09-23T06:21:59.679Z,8.60
2022-09-23T06:22:59.625Z,8.60
2022-09-23T06:23:59.621Z,8.60
2022-09-23T06:24:59.611Z,8.62
2022-09-23T06:25:59.579Z,8.62
2022-09-23T06:26:59.613Z,8.62
2022-09-23T06:27:59.595Z,8.63
2022-09-23T06:28:59.561Z,8.62
2022-09-23T06:29:59.568Z,8.63
2022-09-23T06:30:59.665Z,8.65
2022-09-23T06:31:59.726Z,8.66
2022-09-23T06:32:59.521Z,8.68
2022-09-23T06:34:09.534Z,8.71
2022-09-23T06:34:59.488Z,8.72
2022-09-23T06:36:00.049Z,8.72
2022-09-23T06:37:04.917Z,8.75
2022-09-23T06:37:59.479Z,8.75
2022-09-23T06:38:59.480Z,8.75
2022-09-23T06:39:59.443Z,8.76
2022-09-23T06:40:59.514Z,8.76
2022-09-23T06:41:59.444Z,8.76
2022-09-23T06:42:59.447Z,8.76
2022-09-23T06:43:59.441Z,8.76
2022-09-23T06:44:59.395Z,8.76
2022-09-23T06:45:59.377Z,8.78
2022-09-23T06:46:59.415Z,8.79
2022-09-23T06:47:59.371Z,8.79
2022-09-23T06:48:59.353Z,8.79
2022-09-23T06:49:59.334Z,8.83
2022-09-23T06:50:59.318Z,8.83
2022-09-23T06:51:59.315Z,8.86
2022-09-23T06:52:59.292Z,8.87
2022-09-23T06:53:59.397Z,8.88
2022-09-23T06:54:59.262Z,8.88
2022-09-23T06:55:59.260Z,8.90
2022-09-23T06:56:59.273Z,8.91
2022-09-23T06:57:59.223Z,8.91
2022-09-23T06:58:59.228Z,8.93
2022-09-23T06:59:59.227Z,8.93
2022-09-23T07:00:59.427Z,8.96
2022-09-23T07:01:59.327Z,8.97
2022-09-23T07:02:59.246Z,8.99
2022-09-23T07:03:59.223Z,9.01
2022-09-23T07:04:59.181Z,9.01
2022-09-23T07:05:59.164Z,9.05
2022-09-23T07:06:59.139Z,9.05
2022-09-23T07:07:59.140Z,9.05
2022-09-23T07:08:59.131Z,9.06
2022-09-23T07:09:59.124Z,9.09
2022-09-23T07:10:59.089Z,9.10
2022-09-23T07:11:59.072Z,9.10
2022-09-23T07:12:59.076Z,9.13
2022-09-23T07:13:59.053Z,9.13
2022-09-23T07:14:59.127Z,9.15
2022-09-23T07:15:59.156Z,9.16
2022-09-23T07:16:59.042Z,9.20
2022-09-23T07:17:59.039Z,9.21
2022-09-23T07:18:59.063Z,9.23
2022-09-23T07:19:59.020Z,9.25
2022-09-23T07:20:59.010Z,9.25
2022-09-23T07:21:59.009Z,9.27
2022-09-23T07:22:58.971Z,9.27
2022-09-23T07:23:58.971Z,9.30
2022-09-23T07:24:58.958Z,9.31
2022-09-23T07:25:58.938Z,9.31
2022-09-23T07:26:58.900Z,9.34
2022-09-23T07:27:58.913Z,9.34
2022-09-23T07:28:58.933Z,9.39
2022-09-23T07:29:58.926Z,9.39
2022-09-23T07:31:00.926Z,9.40
2022-09-23T07:32:10.076Z,9.42
2022-09-23T07:32:59.013Z,9.45
2022-09-23T07:33:58.914Z,9.42
2022-09-23T07:34:58.857Z,9.43
2022-09-23T07:35:58.907Z,9.45
2022-09-23T07:36:58.822Z,9.46
2022-09-23T07:37:58.795Z,9.48
2022-09-23T07:38:58.823Z,9.48
2022-09-23T07:39:58.768Z,9.50
2022-09-23T07:40:58.768Z,9.53
2022-09-23T07:41:58.778Z,9.52
2022-09-23T07:42:58.752Z,9.53
2022-09-23T07:43:58.721Z,9.56
2022-09-23T07:44:58.849Z,9.52
2022-09-23T07:45:58.740Z,9.50
2022-09-23T07:46:58.695Z,9.52
2022-09-23T07:47:58.681Z,9.50
2022-09-23T07:48:58.751Z,9.50
2022-09-23T07:49:58.656Z,9.52
2022-09-23T07:50:58.683Z,9.56
2022-09-23T07:51:58.620Z,9.57
2022-09-23T07:52:58.626Z,9.58
2022-09-23T07:53:58.619Z,9.60
2022-09-23T07:54:58.612Z,9.63
2022-09-23T07:55:58.597Z,9.66
2022-09-23T07:56:58.591Z,9.68
2022-09-23T07:57:58.602Z,9.68
2022-09-23T07:58:58.578Z,9.70
2022-09-23T07:59:58.552Z,9.73
2022-09-23T08:00:58.549Z,9.71
2022-09-23T08:01:58.592Z,9.75
2022-09-23T08:02:58.614Z,9.76
2022-09-23T08:03:58.547Z,9.79
2022-09-23T08:04:58.558Z,9.79
2022-09-23T08:05:58.532Z,9.78
2022-09-23T08:06:58.511Z,9.79
2022-09-23T08:07:58.540Z,9.81
2022-09-23T08:08:58.507Z,9.81
2022-09-23T08:09:58.486Z,9.81
2022-09-23T08:10:58.433Z,9.81
2022-09-23T08:11:58.457Z,9.85
2022-09-23T08:12:58.477Z,9.89
2022-09-23T08:13:58.727Z,9.94
2022-09-23T08:14:58.478Z,9.96
2022-09-23T08:15:58.500Z,10.00
2022-09-23T08:16:58.354Z,10.04
2022-09-23T08:17:58.369Z,10.07
2022-09-23T08:18:58.432Z,10.07
2022-09-23T08:19:58.343Z,10.04
2022-09-23T08:20:58.385Z,10.04
2022-09-23T08:21:58.352Z,10.06
2022-09-23T08:22:58.323Z,10.09
2022-09-23T08:23:58.279Z,10.14
2022-09-23T08:24:58.340Z,10.15
2022-09-23T08:25:59.505Z,10.10
2022-09-23T08:26:58.347Z,10.14
2022-09-23T08:27:58.285Z,10.21
2022-09-23T08:28:58.265Z,10.24
2022-09-23T08:29:58.230Z,10.22
2022-09-23T08:30:58.248Z,10.24
2022-09-23T08:31:58.211Z,10.25
2022-09-23T08:32:58.237Z,10.22
2022-09-23T08:33:58.181Z,10.24
2022-09-23T08:34:58.200Z,10.28
2022-09-23T08:35:58.149Z,10.34
2022-09-23T08:36:58.181Z,10.37
2022-09-23T08:37:58.165Z,10.43
2022-09-23T08:38:58.159Z,10.47
2022-09-23T08:39:58.168Z,10.44
2022-09-23T08:40:58.093Z,10.46
2022-09-23T08:41:59.167Z,10.53
2022-09-23T08:42:58.094Z,10.56
2022-09-23T08:43:58.083Z,10.56
2022-09-23T08:44:58.061Z,10.63
2022-09-23T08:45:58.129Z,10.68
2022-09-23T08:46:58.072Z,10.65
2022-09-23T08:47:58.120Z,10.66
2022-09-23T08:48:58.042Z,10.70
2022-09-23T08:49:58.042Z,10.74
2022-09-23T08:50:57.980Z,10.76
2022-09-23T08:51:57.967Z,10.77
2022-09-23T08:52:58.091Z,10.83
2022-09-23T08:53:58.423Z,10.83
2022-09-23T08:54:58.821Z,10.91
2022-09-23T08:55:57.951Z,10.96
2022-09-23T08:56:57.956Z,11.09
2022-09-23T08:58:23.347Z,11.13
2022-09-23T08:58:57.973Z,11.07
2022-09-23T08:59:58.067Z,11.06
2022-09-23T09:00:57.908Z,11.07
2022-09-23T09:01:57.851Z,11.13
2022-09-23T09:02:57.926Z,11.24
2022-09-23T09:03:57.867Z,11.34
2022-09-23T09:04:57.869Z,11.41
2022-09-23T09:05:57.810Z,11.49
2022-09-23T09:07:12.410Z,11.56
2022-09-23T09:07:57.824Z,11.62
2022-09-23T09:08:57.838Z,11.67
2022-09-23T09:09:57.756Z,11.70
2022-09-23T09:10:57.754Z,11.74
2022-09-23T09:11:57.796Z,11.74
2022-09-23T09:12:57.810Z,11.80
2022-09-23T09:13:57.751Z,11.80
2022-09-23T09:14:57.718Z,11.72
2022-09-23T09:15:57.757Z,11.65
2022-09-23T09:17:00.331Z,11.67
2022-09-23T09:17:57.725Z,11.71
2022-09-23T09:18:57.695Z,11.80
2022-09-23T09:19:57.690Z,11.80
2022-09-23T09:20:57.659Z,11.86
2022-09-23T09:21:57.621Z,11.89
2022-09-23T09:22:57.869Z,11.90
2022-09-23T09:23:57.613Z,11.96
2022-09-23T09:24:57.628Z,12.02
2022-09-23T09:25:57.598Z,12.04
2022-09-23T09:26:57.583Z,12.05
2022-09-23T09:27:57.575Z,12.06
2022-09-23T09:29:23.750Z,12.06
2022-09-23T09:29:57.591Z,12.09
2022-09-23T09:30:57.609Z,12.08
2022-09-23T09:31:57.552Z,12.05
2022-09-23T09:32:57.529Z,12.01
2022-09-23T09:33:57.509Z,11.97
2022-09-23T09:34:57.506Z,11.90
2022-09-23T09:35:57.520Z,11.87
2022-09-23T09:36:57.461Z,11.89
2022-09-23T09:37:57.449Z,11.87
2022-09-23T09:38:57.453Z,11.77
2022-09-23T09:39:57.537Z,11.70
2022-09-23T09:40:57.433Z,11.67
2022-09-23T09:41:57.415Z,11.67
2022-09-23T09:42:57.398Z,11.64
2022-09-23T09:43:57.390Z,11.61
2022-09-23T09:44:57.394Z,11.65
2022-09-23T09:45:58.236Z,11.68
2022-09-23T09:46:57.484Z,11.72
2022-09-23T09:47:57.346Z,11.74
2022-09-23T09:48:57.345Z,11.75
2022-09-23T09:49:57.367Z,11.78
2022-09-23T09:50:57.369Z,11.82
2022-09-23T09:51:57.297Z,11.75
2022-09-23T09:52:57.238Z,11.70
2022-09-23T09:53:57.253Z,11.68
2022-09-23T09:54:57.260Z,11.68
2022-09-23T09:55:59.787Z,11.67
2022-09-23T09:56:57.210Z,11.67
2022-09-23T09:57:57.225Z,11.68
2022-09-23T09:58:57.171Z,11.68
2022-09-23T09:59:57.179Z,11.68
2022-09-23T10:00:57.186Z,11.72
2022-09-23T10:01:57.132Z,11.78
2022-09-23T10:02:57.173Z,11.83
2022-09-23T10:03:59.407Z,11.83
2022-09-23T10:04:57.095Z,11.87
2022-09-23T10:05:57.263Z,11.89
2022-09-23T10:06:57.070Z,11.94
2022-09-23T10:07:57.067Z,12.01
2022-09-23T10:08:57.088Z,12.05
2022-09-23T10:10:01.785Z,12.08
2022-09-23T10:10:57.084Z,12.13
2022-09-23T10:11:57.088Z,12.16
2022-09-23T10:12:57.033Z,12.20
2022-09-23T10:13:56.995Z,12.23
2022-09-23T10:14:57.014Z,12.23
2022-09-23T10:15:57.040Z,12.24
2022-09-23T10:16:57.010Z,12.27
2022-09-23T10:17:57.011Z,12.30
2022-09-23T10:18:56.977Z,12.30
2022-09-23T10:19:56.910Z,12.30
2022-09-23T10:20:56.909Z,12.31
2022-09-23T10:21:56.896Z,12.33
2022-09-23T10:22:56.909Z,12.34
2022-09-23T10:23:57.088Z,12.38
2022-09-23T10:24:56.891Z,12.38
2022-09-23T10:25:56.886Z,12.38
2022-09-23T10:26:56.832Z,12.39
2022-09-23T10:27:56.831Z,12.39
2022-09-23T10:28:56.854Z,12.39
2022-09-23T10:29:56.837Z,12.34
2022-09-23T10:30:56.854Z,12.37
2022-09-23T10:31:56.780Z,12.38
2022-09-23T10:32:56.782Z,12.42
2022-09-23T10:33:56.755Z,12.41
2022-09-23T10:34:56.790Z,12.41
2022-09-23T10:35:56.757Z,12.42
2022-09-23T10:36:56.718Z,12.38
2022-09-23T10:37:56.724Z,12.37
2022-09-23T10:38:56.707Z,12.37
2022-09-23T10:39:56.702Z,12.37
2022-09-23T10:40:56.834Z,12.41
2022-09-23T10:41:56.686Z,12.42
2022-09-23T10:42:56.720Z,12.44
2022-09-23T10:43:56.649Z,12.49
2022-09-23T10:44:56.641Z,12.51
2022-09-23T10:45:56.672Z,12.52
2022-09-23T10:46:56.690Z,12.49
2022-09-23T10:47:56.610Z,12.46
2022-09-23T10:48:56.589Z,12.49
2022-09-23T10:49:56.598Z,12.52
2022-09-23T10:50:58.941Z,12.56
2022-09-23T10:51:56.649Z,12.56
2022-09-23T10:52:56.581Z,12.56
2022-09-23T10:53:56.550Z,12.60
2022-09-23T10:54:56.536Z,12.62
2022-09-23T10:55:56.521Z,12.54
2022-09-23T10:56:59.261Z,12.52
2022-09-23T10:57:56.517Z,12.51
2022-09-23T10:58:56.498Z,12.52
2022-09-23T10:59:56.581Z,12.54
2022-09-23T11:00:56.524Z,12.51
2022-09-23T11:01:56.554Z,12.54
2022-09-23T11:02:56.463Z,12.51
2022-09-23T11:03:56.436Z,12.57
2022-09-23T11:04:56.523Z,12.56
2022-09-23T11:05:56.423Z,12.48
2022-09-23T11:06:56.446Z,12.44
2022-09-23T11:07:56.404Z,12.41
2022-09-23T11:08:57.089Z,12.42
2022-09-23T11:09:56.446Z,12.39
2022-09-23T11:10:56.375Z,12.39
2022-09-23T11:11:56.352Z,12.42
2022-09-23T11:12:57.079Z,12.44
2022-09-23T11:13:56.330Z,12.48
2022-09-23T11:14:56.342Z,12.49
2022-09-23T11:15:56.334Z,12.49
2022-09-23T11:16:56.419Z,12.51
2022-09-23T11:17:56.283Z,12.48
2022-09-23T11:18:56.272Z,12.48
2022-09-23T11:19:56.257Z,12.42
2022-09-23T11:20:56.242Z,12.42
2022-09-23T11:21:56.273Z,12.39
2022-09-23T11:22:56.236Z,12.41
2022-09-23T11:23:56.227Z,12.38
2022-09-23T11:24:56.219Z,12.34
2022-09-23T11:25:56.215Z,12.31
2022-09-23T11:26:56.208Z,12.33
2022-09-23T11:27:56.254Z,12.30
2022-09-23T11:28:56.170Z,12.21
2022-09-23T11:29:56.184Z,12.15
2022-09-23T11:30:56.203Z,12.13
2022-09-23T11:31:59.433Z,12.20
2022-09-23T11:32:56.164Z,12.23
2022-09-23T11:33:56.102Z,12.29
2022-09-23T11:34:56.128Z,12.33
2022-09-23T11:35:56.098Z,12.37
2022-09-23T11:36:56.107Z,12.38
2022-09-23T11:37:56.079Z,12.38
2022-09-23T11:38:56.065Z,12.41
2022-09-23T11:39:56.044Z,12.44
2022-09-23T11:40:56.132Z,12.44
2022-09-23T11:41:56.072Z,12.42
2022-09-23T11:42:56.005Z,12.38
2022-09-23T11:43:55.990Z,12.34
2022-09-23T11:44:55.988Z,12.31
2022-09-23T11:45:56.048Z,12.29
2022-09-23T11:46:55.985Z,12.31
2022-09-23T11:47:55.963Z,12.34
2022-09-23T11:48:55.946Z,12.34
2022-09-23T11:49:55.964Z,12.30
2022-09-23T11:50:55.969Z,12.26
2022-09-23T11:51:55.930Z,12.24
2022-09-23T11:52:55.931Z,12.21
2022-09-23T11:53:55.915Z,12.21
2022-09-23T11:54:55.927Z,12.19
2022-09-23T11:55:58.353Z,12.13
2022-09-23T11:56:55.868Z,12.12
2022-09-23T11:57:55.839Z,12.04
2022-09-23T11:58:59.713Z,12.04
2022-09-23T11:59:55.878Z,12.05
2022-09-23T12:01:00.208Z,12.05
2022-09-23T12:01:56.017Z,12.04
2022-09-23T12:03:03.774Z,12.01
2022-09-23T12:03:55.962Z,12.04
2022-09-23T12:04:58.369Z,12.08
2022-09-23T12:05:56.011Z,12.04
2022-09-23T12:06:55.770Z,12.06
2022-09-23T12:07:55.726Z,12.06
2022-09-23T12:08:55.829Z,12.06
2022-09-23T12:09:58.450Z,12.01
2022-09-23T12:10:55.711Z,12.01
2022-09-23T12:11:55.764Z,12.06
2022-09-23T12:12:55.696Z,12.13
2022-09-23T12:13:55.677Z,12.20
2022-09-23T12:14:55.676Z,12.24
2022-09-23T12:15:55.635Z,12.27
2022-09-23T12:16:55.730Z,12.30
2022-09-23T12:17:55.667Z,12.29
2022-09-23T12:18:55.634Z,12.27
2022-09-23T12:19:55.633Z,12.30
2022-09-23T12:20:56.493Z,12.30
2022-09-23T12:21:55.592Z,12.30
2022-09-23T12:22:55.575Z,12.30
2022-09-23T12:23:55.581Z,12.21
2022-09-23T12:24:55.573Z,12.20
2022-09-23T12:25:55.534Z,12.21
2022-09-23T12:26:55.553Z,12.20
2022-09-23T12:27:55.508Z,12.19
2022-09-23T12:28:55.484Z,12.15
2022-09-23T12:29:55.535Z,12.16
2022-09-23T12:30:55.506Z,12.13
2022-09-23T12:31:55.490Z,12.08
2022-09-23T12:32:55.468Z,12.06
2022-09-23T12:33:55.456Z,12.06
2022-09-23T12:34:55.428Z,12.08
2022-09-23T12:35:55.438Z,12.09
2022-09-23T12:36:55.427Z,12.12
2022-09-23T12:37:55.391Z,12.19
2022-09-23T12:38:55.406Z,12.23
2022-09-23T12:39:55.372Z,12.24
2022-09-23T12:40:55.365Z,12.20
2022-09-23T12:41:55.362Z,12.23
2022-09-23T12:42:55.335Z,12.27
2022-09-23T12:43:55.349Z,12.30
2022-09-23T12:44:55.333Z,12.33
2022-09-23T12:45:55.320Z,12.34
2022-09-23T12:46:55.313Z,12.38
2022-09-23T12:47:55.322Z,12.38
2022-09-23T12:48:55.274Z,12.38
2022-09-23T12:49:55.249Z,12.34
2022-09-23T12:50:55.300Z,12.33
2022-09-23T12:51:55.241Z,12.34
2022-09-23T12:52:55.255Z,12.39
2022-09-23T12:53:55.209Z,12.38
2022-09-23T12:54:55.228Z,12.41
2022-09-23T12:55:55.186Z,12.41
2022-09-23T12:56:55.198Z,12.37
2022-09-23T12:57:55.221Z,12.29
2022-09-23T12:58:55.265Z,12.31
2022-09-23T12:59:55.147Z,12.34
2022-09-23T13:00:55.254Z,12.31
2022-09-23T13:01:55.225Z,12.30
2022-09-23T13:02:55.156Z,12.34
2022-09-23T13:03:55.122Z,12.30
2022-09-23T13:04:55.100Z,12.33
2022-09-23T13:05:55.077Z,12.34
2022-09-23T13:06:55.071Z,12.37
2022-09-23T13:07:55.159Z,12.38